TimeEDT,TemperatureF,Dew PointF,Humidity,Sea Level PressureIn,VisibilityMPH,Wind Direction,Wind SpeedMPH,Gust SpeedMPH,PrecipitationIn,Events,Conditions,WindDirDegrees,DateUTC
12:53 AM,69.1,66.9,93,29.90,10.0,Calm,Calm,-,N/A,,Mostly Cloudy,0,2013-08-28 04:53:00
1:53 AM,66.9,66.0,97,29.88,10.0,SE,3.5,-,N/A,,Mostly Cloudy,130,2013-08-28 05:53:00
2:53 AM,66.0,64.9,96,29.88,10.0,SE,4.6,-,N/A,,Scattered Clouds,140,2013-08-28 06:53:00
3:53 AM,64.9,64.0,97,29.88,10.0,SSE,3.5,-,N/A,,Clear,160,2013-08-28 07:53:00
4:53 AM,64.9,64.0,97,29.88,10.0,Calm,Calm,-,N/A,,Scattered Clouds,0,2013-08-28 08:53:00
5:53 AM,64.9,63.0,93,29.88,10.0,Calm,Calm,-,N/A,,Clear,0,2013-08-28 09:53:00
6:53 AM,64.9,63.0,93,29.89,10.0,ESE,4.6,-,N/A,,Clear,120,2013-08-28 10:53:00
7:53 AM,68.0,64.9,90,29.89,10.0,East,3.5,-,N/A,,Clear,90,2013-08-28 11:53:00
8:53 AM,73.0,66.9,81,29.89,10.0,ESE,5.8,-,N/A,,Clear,110,2013-08-28 12:53:00
9:53 AM,75.9,68.0,76,29.89,10.0,Calm,Calm,-,N/A,,Clear,0,2013-08-28 13:53:00
10:15 AM,78.1,68.0,71,29.90,10.0,SE,5.8,-,N/A,,Partly Cloudy,140,2013-08-28 14:15:00
10:53 AM,81.0,69.1,67,29.88,10.0,East,4.6,-,N/A,,Clear,100,2013-08-28 14:53:00
11:53 AM,82.9,68.0,60,29.88,10.0,East,6.9,-,N/A,,Partly Cloudy,90,2013-08-28 15:53:00
12:53 PM,84.0,68.0,58,29.87,10.0,SE,6.9,-,N/A,,Partly Cloudy,130,2013-08-28 16:53:00
1:53 PM,86.0,66.0,51,29.86,10.0,Calm,Calm,-,N/A,,Clear,0,2013-08-28 17:53:00
2:53 PM,87.1,64.9,48,29.84,10.0,East,5.8,-,N/A,,Clear,100,2013-08-28 18:53:00
3:53 PM,86.0,64.9,49,29.83,10.0,Calm,Calm,-,N/A,,Mostly Cloudy,0,2013-08-28 19:53:00
4:53 PM,82.9,64.0,53,29.83,10.0,North,3.5,-,N/A,,Partly Cloudy,360,2013-08-28 20:53:00
5:53 PM,84.9,66.0,53,29.84,10.0,North,6.9,-,N/A,,Clear,360,2013-08-28 21:53:00
6:53 PM,82.9,68.0,60,29.85,10.0,SE,5.8,-,N/A,,Scattered Clouds,130,2013-08-28 22:53:00
7:53 PM,79.0,66.0,64,29.87,10.0,Variable,5.8,-,N/A,,Mostly Cloudy,0,2013-08-28 23:53:00
8:53 PM,73.9,68.0,82,29.90,10.0,Calm,Calm,-,N/A,,Clear,0,2013-08-29 00:53:00
9:53 PM,73.0,66.9,81,29.91,10.0,NE,4.6,-,N/A,,Clear,50,2013-08-29 01:53:00
10:53 PM,71.1,66.9,87,29.92,10.0,East,4.6,-,N/A,,Clear,90,2013-08-29 02:53:00
11:53 PM,69.1,66.0,90,29.92,10.0,ESE,4.6,-,N/A,,Clear,120,2013-08-29 03:53:00